createdAt,value
2018-07-26T00:00:55.309Z,65.00
2018-07-26T00:02:00.043Z,65.50
2018-07-26T00:03:05.007Z,65.70
2018-07-26T00:04:09.552Z,65.80
2018-07-26T00:05:14.590Z,65.80
2018-07-26T00:06:19.293Z,65.70
2018-07-26T00:07:24.770Z,65.90
2018-07-26T00:08:29.396Z,65.90
2018-07-26T00:09:34.939Z,65.90
2018-07-26T00:10:39.554Z,66.10
2018-07-26T00:11:44.965Z,66.10
2018-07-26T00:12:49.660Z,66.30
2018-07-26T00:13:54.760Z,66.40
2018-07-26T00:14:59.635Z,66.40
2018-07-26T00:16:04.369Z,66.40
2018-07-26T00:17:09.150Z,66.40
2018-07-26T00:18:15.939Z,66.40
2018-07-26T00:20:26.617Z,66.70
2018-07-26T00:21:31.929Z,66.70
2018-07-26T00:22:38.246Z,66.90
2018-07-26T00:23:44.616Z,67.00
2018-07-26T00:24:53.186Z,66.90
2018-07-26T00:25:58.800Z,67.20
2018-07-26T00:27:04.097Z,67.10
2018-07-26T00:28:09.007Z,67.20
2018-07-26T00:29:13.832Z,67.30
2018-07-26T00:30:18.493Z,67.20
2018-07-26T00:31:23.205Z,67.20
2018-07-26T00:32:27.977Z,67.50
2018-07-26T00:33:33.403Z,67.60
2018-07-26T00:34:39.316Z,67.60
2018-07-26T00:35:44.566Z,67.80
2018-07-26T00:36:49.646Z,67.80
2018-07-26T00:37:56.772Z,68.00
2018-07-26T00:39:01.815Z,68.10
2018-07-26T00:40:07.103Z,67.90
2018-07-26T00:41:12.112Z,68.00
2018-07-26T00:42:17.673Z,68.00
2018-07-26T00:43:23.678Z,68.10
2018-07-26T00:46:25.337Z,68.20
2018-07-26T00:47:31.246Z,68.60
2018-07-26T00:48:36.249Z,68.50
2018-07-26T00:49:42.062Z,68.60
2018-07-26T00:50:48.775Z,68.60
2018-07-26T00:51:53.550Z,68.70
2018-07-26T00:52:58.814Z,68.60
2018-07-26T00:54:08.533Z,68.70
2018-07-26T00:55:14.240Z,68.80
2018-07-26T00:56:22.487Z,68.90
2018-07-26T00:57:27.835Z,68.80
2018-07-26T00:58:35.312Z,69.00
2018-07-26T00:59:43.308Z,69.10
2018-07-26T01:00:48.993Z,69.20
2018-07-26T01:01:55.228Z,69.30
2018-07-26T01:03:00.542Z,69.30
2018-07-26T01:04:06.070Z,69.40
2018-07-26T01:05:11.432Z,69.40
2018-07-26T01:06:16.640Z,69.70
2018-07-26T01:07:21.800Z,69.80
2018-07-26T01:08:27.180Z,70.00
2018-07-26T01:09:32.261Z,70.00
2018-07-26T01:10:37.743Z,70.00
2018-07-26T01:11:42.836Z,70.10
2018-07-26T01:12:49.167Z,70.30
2018-07-26T01:13:54.581Z,70.30
2018-07-26T01:14:59.682Z,70.30
2018-07-26T01:16:04.707Z,70.30
2018-07-26T01:17:09.612Z,70.50
2018-07-26T01:18:14.377Z,70.60
2018-07-26T01:19:20.735Z,70.60
2018-07-26T01:20:26.250Z,70.80
2018-07-26T01:21:31.326Z,70.80
2018-07-26T01:22:36.633Z,70.90
2018-07-26T01:23:42.028Z,71.10
2018-07-26T01:24:47.357Z,71.30
2018-07-26T01:25:53.215Z,71.40
2018-07-26T01:26:59.661Z,71.40
2018-07-26T01:28:05.925Z,71.50
2018-07-26T01:29:11.811Z,71.60
2018-07-26T01:30:17.661Z,71.70
2018-07-26T01:31:22.904Z,71.80
2018-07-26T01:33:33.793Z,72.10
2018-07-26T01:34:39.154Z,72.00
2018-07-26T01:35:45.035Z,72.20
2018-07-26T01:36:50.047Z,72.20
2018-07-26T01:37:55.093Z,72.90
2018-07-26T01:38:59.988Z,72.30
2018-07-26T01:40:04.708Z,72.30
2018-07-26T01:41:09.433Z,72.30
2018-07-26T01:42:14.836Z,72.30
2018-07-26T01:43:59.567Z,72.30
2018-07-26T01:45:04.754Z,72.30
2018-07-26T01:46:09.701Z,72.20
2018-07-26T01:47:14.744Z,72.20
2018-07-26T01:48:21.282Z,72.50
2018-07-26T01:49:26.349Z,71.90
2018-07-26T01:50:31.373Z,72.00
2018-07-26T01:51:36.134Z,72.00
2018-07-26T01:52:40.922Z,72.10
2018-07-26T01:53:46.236Z,72.50
2018-07-26T01:54:51.200Z,72.50
2018-07-26T01:55:56.490Z,72.50
2018-07-26T01:57:04.612Z,72.60
2018-07-26T01:58:10.735Z,72.70
2018-07-26T01:59:15.583Z,72.60
2018-07-26T02:00:20.356Z,72.70
2018-07-26T02:01:25.888Z,72.80
2018-07-26T02:02:30.690Z,73.00
2018-07-26T02:03:35.449Z,73.10
2018-07-26T02:04:40.187Z,73.30
2018-07-26T02:05:46.134Z,73.50
2018-07-26T02:06:51.385Z,73.40
2018-07-26T02:07:56.993Z,73.50
2018-07-26T02:09:01.825Z,73.50
2018-07-26T02:10:06.991Z,73.60
2018-07-26T02:12:16.266Z,73.40
2018-07-26T02:13:21.194Z,73.70
2018-07-26T02:14:31.479Z,73.80
2018-07-26T02:15:36.502Z,73.70
2018-07-26T02:17:47.011Z,73.90
2018-07-26T02:18:52.235Z,74.00
2018-07-26T02:19:57.286Z,74.00
2018-07-26T02:21:02.406Z,74.00
2018-07-26T02:22:07.982Z,74.00
2018-07-26T02:23:13.182Z,74.20
2018-07-26T02:24:17.987Z,74.30
2018-07-26T02:25:22.813Z,74.30
2018-07-26T02:26:28.195Z,74.20
2018-07-26T02:27:32.922Z,74.00
2018-07-26T02:28:37.730Z,74.10
2018-07-26T02:29:42.787Z,74.30
2018-07-26T02:30:47.804Z,74.50
2018-07-26T02:31:53.379Z,74.40
2018-07-26T02:33:00.102Z,74.10
2018-07-26T02:34:05.468Z,73.90
2018-07-26T02:35:10.127Z,73.60
2018-07-26T02:36:14.973Z,73.80
2018-07-26T02:37:20.429Z,73.80
2018-07-26T02:38:25.751Z,73.70
2018-07-26T02:39:30.659Z,73.60
2018-07-26T02:40:35.640Z,73.50
2018-07-26T02:41:41.646Z,73.50
2018-07-26T02:42:46.394Z,73.70
2018-07-26T02:43:52.208Z,73.70
2018-07-26T02:44:57.157Z,73.70
2018-07-26T02:46:01.842Z,74.40
2018-07-26T02:47:07.608Z,73.80
2018-07-26T02:48:12.392Z,73.70
2018-07-26T02:49:17.430Z,73.90
2018-07-26T02:50:22.848Z,73.70
2018-07-26T02:51:27.711Z,73.70
2018-07-26T02:52:32.676Z,74.10
2018-07-26T02:53:37.684Z,74.30
2018-07-26T02:54:42.485Z,74.20
2018-07-26T02:55:47.291Z,74.00
2018-07-26T02:56:52.630Z,73.90
2018-07-26T02:57:57.774Z,73.90
2018-07-26T02:59:02.979Z,73.80
2018-07-26T03:00:08.516Z,73.60
2018-07-26T03:01:13.400Z,73.90
2018-07-26T03:02:19.390Z,74.00
2018-07-26T03:03:24.363Z,74.10
2018-07-26T03:04:28.818Z,74.00
2018-07-26T03:05:33.875Z,74.10
2018-07-26T03:06:39.462Z,73.90
2018-07-26T03:07:46.002Z,74.10
2018-07-26T03:08:51.542Z,74.80
2018-07-26T03:09:56.213Z,73.80
2018-07-26T03:11:01.025Z,74.00
2018-07-26T03:12:07.587Z,73.90
2018-07-26T03:13:12.484Z,74.00
2018-07-26T03:14:17.179Z,74.10
2018-07-26T03:15:22.116Z,74.10
2018-07-26T03:16:27.060Z,73.80
2018-07-26T03:17:31.775Z,74.00
2018-07-26T03:18:36.799Z,74.00
2018-07-26T03:19:42.409Z,74.20
2018-07-26T03:20:47.431Z,74.30
2018-07-26T03:21:52.231Z,74.30
2018-07-26T03:22:56.785Z,74.30
2018-07-26T03:24:02.364Z,74.30
2018-07-26T03:26:16.381Z,74.60
2018-07-26T03:27:22.051Z,74.70
2018-07-26T03:29:31.199Z,74.70
2018-07-26T03:30:36.364Z,74.60
2018-07-26T03:31:41.442Z,74.80
2018-07-26T03:32:46.639Z,74.90
2018-07-26T03:33:52.161Z,74.90
2018-07-26T03:34:56.889Z,74.90
2018-07-26T03:36:01.805Z,74.90
2018-07-26T03:37:09.322Z,74.90
2018-07-26T03:38:13.930Z,74.90
2018-07-26T03:39:18.912Z,75.00
2018-07-26T03:40:24.310Z,75.00
2018-07-26T03:41:28.810Z,75.10
2018-07-26T03:42:33.839Z,75.10
2018-07-26T03:43:39.015Z,75.30
2018-07-26T03:44:44.657Z,75.30
2018-07-26T03:45:49.785Z,75.30
2018-07-26T03:46:54.495Z,76.30
2018-07-26T03:47:59.332Z,75.30
2018-07-26T03:49:04.518Z,75.30
2018-07-26T03:50:09.676Z,75.20
2018-07-26T03:51:14.499Z,75.30
2018-07-26T03:52:19.558Z,75.30
2018-07-26T03:53:24.453Z,75.60
2018-07-26T03:54:29.570Z,75.90
2018-07-26T03:55:34.443Z,75.80
2018-07-26T03:56:39.189Z,75.80
2018-07-26T03:57:44.201Z,75.80
2018-07-26T03:58:49.498Z,75.60
2018-07-26T03:59:54.160Z,75.80
2018-07-26T04:00:58.844Z,76.00
2018-07-26T04:02:04.273Z,76.00
2018-07-26T04:03:09.030Z,75.90
2018-07-26T04:04:14.062Z,75.80
2018-07-26T04:05:18.812Z,76.00
2018-07-26T04:06:23.600Z,75.90
2018-07-26T04:07:28.294Z,75.80
2018-07-26T04:08:32.825Z,76.00
2018-07-26T04:09:38.023Z,75.90
2018-07-26T04:10:42.773Z,76.00
2018-07-26T04:11:47.670Z,75.60
2018-07-26T04:12:52.615Z,75.90
2018-07-26T04:13:57.666Z,76.10
2018-07-26T04:15:02.835Z,76.20
2018-07-26T04:16:07.662Z,76.40
2018-07-26T04:17:13.064Z,76.60
2018-07-26T04:18:18.100Z,76.30
2018-07-26T04:20:28.266Z,76.10
2018-07-26T04:21:34.119Z,76.00
2018-07-26T04:22:38.771Z,76.20
2018-07-26T04:23:45.081Z,76.80
2018-07-26T04:24:49.665Z,76.30
2018-07-26T04:25:54.629Z,76.20
2018-07-26T04:26:59.326Z,76.00
2018-07-26T04:28:04.407Z,76.20
2018-07-26T04:29:09.125Z,76.40
2018-07-26T04:30:18.806Z,76.50
2018-07-26T04:31:23.518Z,76.40
2018-07-26T04:32:28.206Z,76.50
2018-07-26T04:33:33.709Z,76.50
2018-07-26T04:34:38.153Z,76.60
2018-07-26T04:35:45.167Z,76.70
2018-07-26T04:36:51.458Z,77.30
2018-07-26T04:37:56.160Z,76.70
2018-07-26T04:39:03.982Z,76.60
2018-07-26T04:40:08.627Z,76.60
2018-07-26T04:42:18.082Z,76.90
2018-07-26T04:43:23.492Z,76.70
2018-07-26T04:44:28.545Z,76.90
2018-07-26T04:45:33.147Z,76.80
2018-07-26T04:46:38.795Z,77.00
2018-07-26T04:47:43.413Z,77.00
2018-07-26T04:48:48.128Z,77.00
2018-07-26T04:49:53.006Z,77.40
2018-07-26T04:50:58.532Z,77.50
2018-07-26T04:52:05.346Z,77.50
2018-07-26T04:53:11.094Z,78.10
2018-07-26T04:54:16.073Z,77.50
2018-07-26T04:55:21.648Z,77.80
2018-07-26T04:56:27.130Z,77.50
2018-07-26T04:57:31.993Z,77.60
2018-07-26T04:58:37.568Z,77.50
2018-07-26T04:59:43.038Z,77.50
2018-07-26T05:00:47.759Z,77.20
2018-07-26T05:01:52.483Z,77.00
2018-07-26T05:02:57.809Z,76.80
2018-07-26T05:04:02.401Z,76.60
2018-07-26T05:05:07.425Z,76.60
2018-07-26T05:06:12.474Z,76.70
2018-07-26T05:07:17.959Z,76.70
2018-07-26T05:08:23.062Z,77.40
2018-07-26T05:09:28.545Z,76.60
2018-07-26T05:10:33.320Z,76.80
2018-07-26T05:11:37.877Z,77.00
2018-07-26T05:12:44.282Z,77.10
2018-07-26T05:13:48.897Z,78.30
2018-07-26T05:14:54.122Z,77.10
2018-07-26T05:15:58.988Z,76.60
2018-07-26T05:17:04.407Z,75.60
2018-07-26T05:18:10.704Z,75.60
2018-07-26T05:19:15.258Z,75.70
2018-07-26T05:20:21.357Z,76.10
2018-07-26T05:24:38.223Z,75.30
2018-07-26T05:25:42.789Z,75.00
2018-07-26T05:26:48.430Z,74.80
2018-07-26T05:27:53.787Z,74.60
2018-07-26T05:28:58.430Z,74.60
2018-07-26T05:30:03.228Z,74.90
2018-07-26T05:31:08.115Z,74.60
2018-07-26T05:32:14.793Z,74.10
2018-07-26T05:33:19.395Z,74.00
2018-07-26T05:34:24.632Z,74.50
2018-07-26T05:35:29.161Z,73.50
2018-07-26T05:36:33.676Z,73.60
2018-07-26T05:37:39.302Z,73.40
2018-07-26T05:38:44.440Z,73.30
2018-07-26T05:39:51.100Z,73.40
2018-07-26T05:40:55.741Z,74.10
2018-07-26T05:42:00.407Z,74.00
2018-07-26T05:43:05.343Z,73.30
2018-07-26T05:44:11.090Z,72.60
2018-07-26T05:45:16.306Z,72.20
2018-07-26T05:46:20.935Z,72.40
2018-07-26T05:47:26.506Z,72.40
2018-07-26T05:48:33.851Z,72.50
2018-07-26T05:49:40.313Z,72.50
2018-07-26T05:50:44.901Z,72.60
2018-07-26T05:51:49.671Z,72.50
2018-07-26T05:52:54.157Z,72.30
2018-07-26T05:53:58.877Z,72.30
2018-07-26T05:55:03.958Z,72.70
2018-07-26T05:56:09.565Z,71.40
2018-07-26T05:57:14.065Z,71.20
2018-07-26T05:58:18.661Z,71.20
2018-07-26T05:59:23.326Z,71.20
2018-07-26T06:00:29.361Z,71.30
2018-07-26T06:01:33.995Z,71.10
2018-07-26T06:02:41.397Z,71.30
2018-07-26T06:03:47.056Z,70.50
2018-07-26T06:04:51.649Z,70.10
2018-07-26T06:05:56.173Z,70.20
2018-07-26T06:07:00.800Z,70.00
2018-07-26T06:08:05.412Z,70.00
2018-07-26T06:09:12.270Z,69.90
2018-07-26T06:10:17.140Z,69.00
2018-07-26T06:11:21.709Z,68.10
2018-07-26T06:12:26.648Z,67.60
2018-07-26T06:13:31.524Z,67.10
2018-07-26T06:14:36.184Z,66.90
2018-07-26T06:15:41.355Z,66.70
2018-07-26T06:16:47.237Z,66.20
2018-07-26T06:17:51.858Z,66.30
2018-07-26T06:18:56.814Z,66.10
2018-07-26T06:20:01.297Z,65.70
2018-07-26T06:21:07.252Z,65.20
2018-07-26T06:22:12.588Z,65.40
2018-07-26T06:23:20.093Z,65.70
2018-07-26T06:24:27.633Z,65.70
2018-07-26T06:25:32.095Z,65.70
2018-07-26T06:26:38.107Z,65.50
2018-07-26T06:27:43.192Z,65.50
2018-07-26T06:28:51.301Z,65.50
2018-07-26T06:29:56.300Z,65.30
2018-07-26T06:31:01.165Z,65.20
2018-07-26T06:32:06.376Z,65.10
2018-07-26T06:33:11.785Z,65.60
2018-07-26T06:34:17.042Z,64.30
2018-07-26T06:35:23.005Z,64.20
2018-07-26T06:36:27.814Z,64.20
2018-07-26T06:37:32.320Z,64.10
2018-07-26T06:38:37.186Z,63.80
2018-07-26T06:39:42.642Z,63.90
2018-07-26T06:40:48.679Z,63.90
2018-07-26T06:41:54.697Z,63.40
2018-07-26T06:43:00.279Z,63.30
2018-07-26T06:44:05.184Z,63.30
2018-07-26T06:45:10.770Z,63.30
2018-07-26T06:46:16.922Z,63.10
2018-07-26T06:47:22.750Z,62.90
2018-07-26T06:48:28.555Z,62.80
2018-07-26T06:49:33.538Z,62.40
2018-07-26T06:50:38.520Z,62.20
2018-07-26T06:51:43.686Z,62.20
2018-07-26T06:52:48.849Z,61.90
2018-07-26T06:53:53.715Z,61.50
2018-07-26T06:55:00.476Z,61.40
2018-07-26T06:56:06.268Z,61.10
2018-07-26T06:57:12.623Z,61.70
2018-07-26T06:58:19.557Z,60.70
2018-07-26T06:59:24.608Z,60.30
2018-07-26T07:00:29.587Z,59.90
2018-07-26T07:01:34.179Z,59.60
2018-07-26T07:02:39.320Z,59.30
2018-07-26T07:03:43.870Z,59.00
2018-07-26T07:04:48.623Z,58.70
2018-07-26T07:05:53.489Z,58.50
2018-07-26T07:06:59.475Z,58.20
2018-07-26T07:08:04.169Z,57.90
2018-07-26T07:09:11.008Z,58.00
2018-07-26T07:10:15.855Z,57.90
2018-07-26T07:11:20.608Z,58.00
2018-07-26T07:12:27.236Z,57.80
2018-07-26T07:13:32.843Z,57.80
2018-07-26T07:14:38.328Z,57.90
2018-07-26T07:15:43.244Z,58.10
2018-07-26T07:16:48.165Z,58.30
2018-07-26T07:17:53.089Z,58.30
2018-07-26T07:18:59.000Z,58.30
2018-07-26T07:20:04.085Z,58.30
2018-07-26T07:21:09.169Z,58.40
2018-07-26T07:22:14.292Z,58.40
2018-07-26T07:23:22.444Z,58.40
2018-07-26T07:24:28.155Z,58.50
2018-07-26T07:25:33.457Z,58.70
2018-07-26T07:26:40.519Z,58.70
2018-07-26T07:27:46.315Z,58.90
2018-07-26T07:28:54.833Z,58.60
2018-07-26T07:29:59.658Z,58.50
2018-07-26T07:31:04.546Z,58.50
2018-07-26T07:32:09.332Z,58.90
2018-07-26T07:33:14.695Z,59.30
2018-07-26T07:34:19.468Z,59.30
2018-07-26T07:35:25.529Z,58.20
2018-07-26T07:36:30.488Z,58.30
2018-07-26T07:37:35.991Z,58.60
2018-07-26T07:38:43.451Z,58.50
2018-07-26T07:39:49.026Z,58.40
2018-07-26T07:40:53.753Z,58.30
2018-07-26T07:41:58.632Z,58.20
2018-07-26T07:43:04.453Z,58.00
2018-07-26T07:44:10.230Z,57.40
2018-07-26T07:45:16.084Z,57.40
2018-07-26T07:46:21.975Z,57.50
2018-07-26T07:47:27.451Z,57.70
2018-07-26T07:48:33.806Z,57.90
2018-07-26T07:49:39.830Z,57.40
2018-07-26T07:50:59.145Z,57.00
2018-07-26T07:52:04.372Z,57.00
2018-07-26T07:53:09.449Z,57.10
2018-07-26T07:54:14.809Z,57.00
2018-07-26T07:55:19.417Z,57.40
2018-07-26T07:56:24.828Z,56.50
2018-07-26T07:57:29.477Z,57.30
2018-07-26T07:58:34.306Z,56.40
2018-07-26T07:59:39.371Z,55.20
2018-07-26T08:00:44.014Z,54.00
2018-07-26T08:01:48.868Z,53.90
2018-07-26T08:02:57.372Z,54.40
2018-07-26T08:04:02.413Z,54.20
2018-07-26T08:06:05.107Z,53.90
2018-07-26T08:07:10.633Z,54.30
2018-07-26T08:08:17.013Z,54.20
2018-07-26T08:09:21.739Z,54.20
2018-07-26T08:10:26.378Z,53.80
2018-07-26T08:11:31.206Z,53.60
2018-07-26T08:12:37.663Z,53.50
2018-07-26T08:13:44.442Z,51.80
2018-07-26T08:14:49.675Z,51.70
2018-07-26T08:15:56.431Z,51.60
2018-07-26T08:17:02.212Z,51.20
2018-07-26T08:18:08.472Z,50.30
2018-07-26T08:19:13.154Z,50.00
2018-07-26T08:20:19.452Z,50.10
2018-07-26T08:21:24.088Z,49.80
2018-07-26T08:22:29.618Z,49.50
2018-07-26T08:23:38.740Z,49.40
2018-07-26T08:24:49.078Z,49.40
2018-07-26T08:25:56.366Z,49.10
2018-07-26T08:27:01.051Z,49.20
2018-07-26T08:28:06.149Z,48.80
2018-07-26T08:29:10.908Z,48.80
2018-07-26T08:30:19.710Z,49.10
2018-07-26T08:31:25.080Z,49.20
2018-07-26T08:32:30.038Z,48.70
2018-07-26T08:33:35.828Z,48.70
2018-07-26T08:34:42.180Z,48.70
2018-07-26T08:36:56.483Z,48.50
2018-07-26T08:38:02.289Z,48.30
2018-07-26T08:39:49.453Z,48.60
2018-07-26T08:41:12.245Z,48.70
2018-07-26T08:42:18.763Z,47.60
2018-07-26T08:43:25.053Z,47.80
2018-07-26T08:44:30.978Z,47.80
2018-07-26T08:45:40.072Z,48.00
2018-07-26T08:46:45.490Z,48.20
2018-07-26T08:47:52.198Z,48.10
2018-07-26T08:48:57.595Z,48.70
2018-07-26T08:50:02.227Z,47.90
2018-07-26T08:51:07.874Z,47.50
2018-07-26T08:52:12.635Z,47.80
2018-07-26T08:53:17.570Z,47.60
2018-07-26T08:54:23.285Z,47.90
2018-07-26T08:55:30.860Z,47.70
2018-07-26T08:56:37.159Z,47.10
2018-07-26T08:57:41.927Z,47.20
2018-07-26T08:58:47.001Z,47.50
2018-07-26T08:59:57.231Z,47.40
2018-07-26T09:01:02.702Z,47.20
2018-07-26T09:02:09.590Z,47.40
2018-07-26T09:03:14.846Z,47.40
2018-07-26T09:04:19.840Z,47.10
2018-07-26T09:05:24.694Z,46.40
2018-07-26T09:06:31.039Z,46.10
2018-07-26T09:07:35.848Z,45.80
2018-07-26T09:08:41.217Z,46.00
2018-07-26T09:09:49.494Z,45.70
2018-07-26T09:10:56.215Z,45.50
2018-07-26T09:12:01.088Z,46.40
2018-07-26T09:13:05.968Z,45.60
2018-07-26T09:14:10.770Z,45.20
2018-07-26T09:15:15.737Z,45.20
2018-07-26T09:16:21.080Z,45.80
2018-07-26T09:17:26.357Z,45.90
2018-07-26T09:18:31.219Z,46.20
2018-07-26T09:19:35.872Z,45.30
2018-07-26T09:20:41.031Z,45.80
2018-07-26T09:21:46.229Z,45.50
2018-07-26T09:22:52.065Z,45.50
2018-07-26T09:23:59.378Z,45.20
2018-07-26T09:25:06.101Z,44.80
2018-07-26T09:26:11.043Z,44.00
2018-07-26T09:27:46.099Z,44.60
2018-07-26T09:28:52.209Z,44.50
2018-07-26T09:29:59.376Z,44.20
2018-07-26T09:31:07.889Z,44.30
2018-07-26T09:32:15.304Z,44.10
2018-07-26T09:33:21.451Z,44.60
2018-07-26T09:34:26.546Z,44.10
2018-07-26T09:35:31.437Z,44.50
2018-07-26T09:36:37.232Z,44.40
2018-07-26T09:37:42.998Z,44.20
2018-07-26T09:38:58.230Z,44.40
2018-07-26T09:40:03.219Z,43.70
2018-07-26T09:41:09.563Z,43.40
2018-07-26T09:43:19.899Z,43.60
2018-07-26T09:44:24.807Z,43.20
2018-07-26T09:45:32.505Z,42.90
2018-07-26T09:46:37.022Z,42.00
2018-07-26T09:47:42.009Z,42.10
2018-07-26T09:48:48.652Z,42.20
2018-07-26T09:49:53.813Z,43.30
2018-07-26T09:51:04.361Z,42.80
2018-07-26T09:52:12.809Z,43.30
2018-07-26T09:53:20.287Z,43.00
2018-07-26T09:54:32.174Z,42.60
2018-07-26T09:55:37.631Z,41.50
2018-07-26T09:56:42.424Z,39.40
2018-07-26T09:57:48.992Z,39.10
2018-07-26T09:58:56.066Z,38.80
2018-07-26T10:00:04.004Z,38.90
2018-07-26T10:01:15.822Z,38.40
2018-07-26T10:02:21.412Z,38.10
2018-07-26T10:03:27.260Z,37.70
2018-07-26T10:04:32.242Z,37.60
2018-07-26T10:05:37.713Z,37.90
2018-07-26T10:06:44.686Z,37.40
2018-07-26T10:07:50.436Z,37.30
2018-07-26T10:08:55.517Z,38.00
2018-07-26T10:10:00.457Z,37.90
2018-07-26T10:11:07.358Z,37.70
2018-07-26T10:12:12.358Z,37.60
2018-07-26T10:13:17.258Z,37.50
2018-07-26T10:14:25.182Z,36.70
2018-07-26T10:15:30.962Z,36.00
2018-07-26T10:16:40.326Z,35.90
2018-07-26T10:17:47.716Z,35.80
2018-07-26T10:19:56.935Z,35.50
2018-07-26T10:21:01.793Z,35.30
2018-07-26T10:22:09.150Z,35.30
2018-07-26T10:23:13.855Z,35.20
2018-07-26T10:24:18.779Z,35.00
2018-07-26T10:25:23.660Z,35.20
2018-07-26T10:26:29.731Z,35.30
2018-07-26T10:27:39.072Z,35.30
2018-07-26T10:28:45.068Z,35.40
2018-07-26T10:29:50.212Z,36.20
2018-07-26T10:30:56.655Z,36.70
2018-07-26T10:32:09.720Z,36.20
2018-07-26T10:34:23.534Z,36.00
2018-07-26T10:35:29.190Z,35.60
2018-07-26T10:36:38.217Z,35.50
2018-07-26T10:37:45.095Z,35.50
2018-07-26T10:38:50.540Z,35.70
2018-07-26T10:39:57.177Z,35.30
2018-07-26T10:41:02.067Z,35.20
2018-07-26T10:42:07.219Z,35.20
2018-07-26T10:43:12.625Z,34.80
2018-07-26T10:44:24.032Z,35.40
2018-07-26T10:45:29.572Z,35.00
2018-07-26T10:46:36.325Z,35.10
2018-07-26T10:47:41.211Z,35.80
2018-07-26T10:48:46.150Z,35.50
2018-07-26T10:49:51.882Z,35.50
2018-07-26T10:50:59.336Z,36.80
2018-07-26T10:52:18.427Z,36.90
2018-07-26T10:53:23.526Z,37.10
2018-07-26T10:54:28.194Z,36.70
2018-07-26T10:55:34.930Z,36.90
2018-07-26T10:56:42.120Z,36.50
2018-07-26T10:57:47.604Z,36.80
2018-07-26T10:58:52.636Z,36.20
2018-07-26T10:59:57.563Z,36.30
2018-07-26T11:01:02.905Z,36.90
2018-07-26T11:02:07.827Z,34.90
2018-07-26T11:03:14.980Z,33.70
2018-07-26T11:04:21.667Z,32.90
2018-07-26T11:05:26.456Z,32.10
2018-07-26T11:06:41.182Z,31.40
2018-07-26T11:07:46.217Z,31.80
2018-07-26T11:08:50.885Z,31.80
2018-07-26T11:09:55.549Z,31.70
2018-07-26T11:11:03.010Z,32.20
2018-07-26T11:12:11.525Z,33.10
2018-07-26T11:13:20.086Z,32.80
2018-07-26T11:14:42.006Z,33.40
2018-07-26T11:15:47.210Z,33.00
2018-07-26T11:16:52.306Z,32.40
2018-07-26T11:17:57.310Z,30.60
2018-07-26T11:19:19.374Z,28.00
2018-07-26T11:20:27.261Z,25.90
2018-07-26T11:21:33.749Z,24.20
2018-07-26T11:22:39.320Z,23.30
2018-07-26T11:23:43.845Z,22.20
2018-07-26T11:24:54.344Z,22.60
2018-07-26T11:26:00.501Z,22.50
2018-07-26T11:27:08.782Z,22.30
2018-07-26T11:28:14.646Z,20.60
2018-07-26T11:29:47.970Z,20.30
2018-07-26T11:30:54.603Z,19.30
2018-07-26T11:32:01.186Z,18.00
2018-07-26T11:33:05.870Z,16.80
2018-07-26T11:34:10.825Z,16.10
2018-07-26T11:35:15.709Z,15.60
2018-07-26T11:36:21.495Z,15.20
2018-07-26T11:37:26.098Z,15.20
2018-07-26T11:38:31.169Z,15.40
2018-07-26T11:39:38.818Z,16.90
2018-07-26T11:40:43.678Z,16.50
2018-07-26T11:41:48.489Z,16.70
2018-07-26T11:42:53.227Z,16.70
2018-07-26T11:43:59.120Z,16.50
2018-07-26T11:45:04.955Z,15.90
2018-07-26T11:46:09.565Z,15.80
2018-07-26T11:47:14.154Z,15.00
2018-07-26T11:48:19.090Z,14.90
2018-07-26T11:50:41.561Z,14.20
2018-07-26T11:51:46.633Z,13.80
2018-07-26T11:52:52.253Z,13.90
2018-07-26T11:53:57.549Z,13.60
2018-07-26T11:55:03.944Z,13.70
2018-07-26T11:56:08.511Z,13.20
2018-07-26T11:57:15.317Z,13.20
2018-07-26T11:58:21.933Z,12.70
2018-07-26T11:59:27.837Z,13.10
2018-07-26T12:00:32.311Z,12.90
2018-07-26T12:01:37.496Z,13.50
2018-07-26T12:02:42.985Z,13.80
2018-07-26T12:03:47.803Z,14.60
2018-07-26T12:04:55.830Z,15.20
2018-07-26T12:06:04.665Z,15.80
2018-07-26T12:07:10.686Z,16.80
2018-07-26T12:08:16.699Z,18.20
2018-07-26T12:09:21.474Z,18.50
2018-07-26T12:10:27.489Z,19.10
2018-07-26T12:11:40.739Z,19.60
2018-07-26T12:12:47.030Z,19.60
2018-07-26T12:13:57.188Z,19.70
2018-07-26T12:15:13.701Z,20.20
2018-07-26T12:16:22.265Z,21.00
2018-07-26T12:18:47.100Z,22.20
2018-07-26T12:19:55.039Z,21.90
2018-07-26T12:21:10.635Z,22.40
2018-07-26T12:22:17.008Z,22.60
2018-07-26T12:23:30.844Z,23.10
2018-07-26T12:24:39.429Z,23.00
2018-07-26T12:25:45.612Z,23.90
2018-07-26T12:26:52.255Z,23.60
2018-07-26T12:28:02.826Z,23.60
2018-07-26T12:29:09.640Z,24.20
2018-07-26T12:30:17.856Z,25.10
2018-07-26T12:31:26.330Z,25.20
2018-07-26T12:32:32.380Z,25.00
2018-07-26T12:33:42.927Z,25.20
2018-07-26T12:34:47.885Z,25.50
2018-07-26T12:35:54.698Z,25.30
2018-07-26T12:37:00.041Z,25.60
2018-07-26T12:38:04.768Z,25.00
2018-07-26T12:39:12.516Z,25.60
2018-07-26T12:40:18.000Z,25.20
2018-07-26T12:41:23.189Z,25.50
2018-07-26T12:42:29.019Z,25.00
2018-07-26T12:43:33.737Z,25.20
2018-07-26T12:44:40.071Z,23.50
2018-07-26T12:45:46.328Z,23.90
2018-07-26T12:46:51.257Z,24.50
2018-07-26T12:48:00.804Z,24.90
2018-07-26T12:49:07.396Z,24.90
2018-07-26T12:50:11.874Z,25.20
2018-07-26T12:51:17.549Z,23.90
2018-07-26T12:52:23.826Z,24.10
2018-07-26T12:53:28.619Z,24.90
2018-07-26T12:54:33.304Z,24.30
2018-07-26T12:55:37.864Z,25.50
2018-07-26T12:56:42.758Z,24.40
2018-07-26T12:57:48.546Z,24.60
2018-07-26T12:58:55.232Z,25.00
2018-07-26T13:00:01.148Z,25.40
2018-07-26T13:01:08.520Z,25.10
2018-07-26T13:02:21.033Z,25.30
2018-07-26T13:03:27.554Z,25.70
2018-07-26T13:04:35.379Z,25.20
2018-07-26T13:05:40.814Z,25.10
2018-07-26T13:06:45.607Z,24.70
2018-07-26T13:07:51.776Z,24.70
2018-07-26T13:08:56.803Z,24.50
2018-07-26T13:10:01.680Z,24.70
2018-07-26T13:11:08.088Z,24.60
2018-07-26T13:12:14.789Z,24.30
2018-07-26T13:13:23.496Z,24.30
2018-07-26T13:14:28.794Z,24.50
2018-07-26T13:15:33.953Z,25.00
2018-07-26T13:16:38.814Z,25.10
2018-07-26T13:17:43.460Z,25.60
2018-07-26T13:18:50.104Z,25.40
2018-07-26T13:19:55.504Z,26.10
2018-07-26T13:21:00.685Z,26.00
2018-07-26T13:22:05.246Z,25.50
2018-07-26T13:23:10.218Z,25.40
2018-07-26T13:24:15.740Z,26.40
2018-07-26T13:25:20.361Z,25.70
2018-07-26T13:26:28.332Z,26.60
2018-07-26T13:27:33.677Z,26.10
2018-07-26T13:28:39.865Z,26.40
2018-07-26T13:29:45.418Z,26.00
2018-07-26T13:30:50.211Z,25.80
2018-07-26T13:31:58.103Z,26.20
2018-07-26T13:33:05.945Z,26.60
2018-07-26T13:34:12.393Z,27.20
2018-07-26T13:35:18.466Z,27.00
2018-07-26T13:36:24.767Z,27.10
2018-07-26T13:37:42.390Z,26.90
2018-07-26T13:38:50.260Z,27.10
2018-07-26T13:39:59.552Z,27.30
2018-07-26T13:41:35.280Z,27.40
2018-07-26T13:42:41.198Z,27.30
2018-07-26T13:43:45.878Z,28.00
2018-07-26T13:44:54.055Z,27.90
2018-07-26T13:46:01.053Z,27.70
2018-07-26T13:47:07.180Z,27.40
2018-07-26T13:48:12.331Z,27.40
2018-07-26T13:49:16.967Z,27.60
2018-07-26T13:50:21.752Z,27.70
2018-07-26T13:51:26.310Z,28.00
2018-07-26T13:52:33.022Z,27.80
2018-07-26T13:53:38.304Z,28.30
2018-07-26T13:54:44.330Z,28.70
2018-07-26T13:55:53.054Z,28.70
2018-07-26T13:57:00.062Z,28.50
2018-07-26T13:58:06.103Z,27.50
2018-07-26T13:59:11.357Z,27.40
2018-07-26T14:00:17.763Z,27.60
2018-07-26T14:01:22.417Z,27.40
2018-07-26T14:02:27.154Z,28.10
2018-07-26T14:03:34.104Z,28.10
2018-07-26T14:04:39.169Z,28.00
2018-07-26T14:05:44.630Z,28.20
2018-07-26T14:06:50.497Z,27.90
2018-07-26T14:07:55.801Z,28.30
2018-07-26T14:09:01.075Z,27.60
2018-07-26T14:10:07.912Z,27.80
2018-07-26T14:11:13.730Z,28.30
2018-07-26T14:12:19.730Z,28.50
2018-07-26T14:13:25.193Z,28.30
2018-07-26T14:14:33.081Z,28.20
2018-07-26T14:15:40.404Z,28.80
2018-07-26T14:16:46.127Z,28.60
2018-07-26T14:17:52.081Z,29.00
2018-07-26T14:18:57.657Z,28.80
2018-07-26T14:20:07.229Z,28.90
2018-07-26T14:21:14.094Z,28.50
2018-07-26T14:22:50.773Z,28.90
2018-07-26T14:23:58.811Z,28.90
2018-07-26T14:25:05.967Z,29.80
2018-07-26T14:26:13.848Z,30.80
2018-07-26T14:27:19.381Z,32.60
2018-07-26T14:28:24.247Z,33.60
2018-07-26T14:29:29.323Z,34.40
2018-07-26T14:30:36.160Z,34.30
2018-07-26T14:31:44.054Z,37.20
2018-07-26T14:32:49.600Z,39.50
2018-07-26T14:34:04.664Z,42.10